createdAt,value
2022-12-09T00:04:42.414Z,11.80
2022-12-09T00:09:44.984Z,9.45
2022-12-09T00:14:47.517Z,9.07
2022-12-09T00:19:49.796Z,8.25
2022-12-09T00:24:51.974Z,9.55
2022-12-09T00:29:54.143Z,11.38
2022-12-09T00:34:56.321Z,8.10
2022-12-09T00:39:58.524Z,7.40
2022-12-09T00:45:00.849Z,7.60
2022-12-09T00:50:04.095Z,10.50
2022-12-09T00:55:07.674Z,5.85
2022-12-09T01:00:11.548Z,6.57
2022-12-09T01:05:14.525Z,8.88
2022-12-09T01:10:17.325Z,6.80
2022-12-09T01:15:19.775Z,7.28
2022-12-09T01:20:22.670Z,7.45
2022-12-09T01:25:25.127Z,8.43
2022-12-09T01:30:27.362Z,7.32
2022-12-09T01:35:29.984Z,7.70
2022-12-09T01:40:32.638Z,7.15
2022-12-09T01:45:41.434Z,7.57
2022-12-09T01:50:57.950Z,6.32
2022-12-09T01:56:03.703Z,10.30
2022-12-09T02:01:07.780Z,6.70
2022-12-09T02:06:10.499Z,6.70
2022-12-09T02:11:20.677Z,7.80
2022-12-09T02:16:26.246Z,7.43
2022-12-09T02:22:03.692Z,7.20
2022-12-09T02:27:28.743Z,8.32
2022-12-09T02:33:08.733Z,7.25
2022-12-09T02:38:20.405Z,6.50
2022-12-09T02:43:30.506Z,7.80
2022-12-09T02:48:41.296Z,8.60
2022-12-09T02:53:48.397Z,9.25
2022-12-09T02:58:51.054Z,6.13
2022-12-09T03:03:59.466Z,8.13
2022-12-09T03:09:10.310Z,6.43
2022-12-09T03:14:35.738Z,7.70
2022-12-09T03:19:58.944Z,6.63
2022-12-09T03:25:06.405Z,6.05
2022-12-09T03:30:11.238Z,5.15
2022-12-09T03:35:20.770Z,8.07
2022-12-09T03:40:27.686Z,5.60
2022-12-09T03:45:31.122Z,5.50
2022-12-09T03:50:58.316Z,4.93
2022-12-09T03:56:17.860Z,6.28
2022-12-09T04:01:21.012Z,7.38
2022-12-09T04:06:24.090Z,6.00
2022-12-09T04:11:26.673Z,4.93
2022-12-09T04:16:29.454Z,4.82
2022-12-09T04:21:31.824Z,4.10
2022-12-09T04:26:34.941Z,4.63
2022-12-09T04:31:37.382Z,5.95
2022-12-09T04:36:39.816Z,3.58
2022-12-09T04:41:42.109Z,4.97
2022-12-09T04:46:44.480Z,4.50
2022-12-09T04:51:47.035Z,5.30
2022-12-09T04:56:50.329Z,6.30
2022-12-09T05:01:52.851Z,4.38
2022-12-09T05:06:55.658Z,4.85
2022-12-09T05:11:59.292Z,4.57
2022-12-09T05:17:03.221Z,4.30
2022-12-09T05:22:05.810Z,3.70
2022-12-09T05:27:08.171Z,4.43
2022-12-09T05:32:11.106Z,3.63
2022-12-09T05:37:15.402Z,4.03
2022-12-09T05:42:18.340Z,5.80
2022-12-09T05:47:20.716Z,5.00
2022-12-09T05:52:23.011Z,6.32
2022-12-09T05:57:25.659Z,3.90
2022-12-09T06:02:28.498Z,5.13
2022-12-09T06:07:31.276Z,5.63
2022-12-09T06:12:34.069Z,7.15
2022-12-09T06:17:36.597Z,7.63
2022-12-09T06:22:39.130Z,4.97
2022-12-09T06:27:41.729Z,4.97
2022-12-09T06:32:44.517Z,5.45
2022-12-09T06:37:47.068Z,5.60
2022-12-09T06:42:51.925Z,5.78
2022-12-09T06:47:55.053Z,6.28
2022-12-09T06:52:57.472Z,5.25
2022-12-09T06:57:59.859Z,5.93
2022-12-09T07:03:02.788Z,3.55
2022-12-09T07:08:05.418Z,5.32
2022-12-09T07:13:07.901Z,6.97
2022-12-09T07:18:10.219Z,5.03
2022-12-09T07:23:13.867Z,5.68
2022-12-09T07:28:16.270Z,5.65
2022-12-09T07:33:18.852Z,6.63
2022-12-09T07:38:21.253Z,6.40
2022-12-09T07:43:23.725Z,7.63
2022-12-09T07:48:26.186Z,7.55
2022-12-09T07:53:29.089Z,7.90
2022-12-09T07:58:31.422Z,13.65
2022-12-09T08:03:34.272Z,21.75
2022-12-09T08:08:36.766Z,17.50
2022-12-09T08:13:39.751Z,12.05
2022-12-09T08:18:43.064Z,8.20
2022-12-09T08:23:45.879Z,7.18
2022-12-09T08:28:50.243Z,6.28
2022-12-09T08:33:54.933Z,13.52
2022-12-09T08:39:00.799Z,12.10
2022-12-09T08:44:07.292Z,9.45
2022-12-09T08:49:10.108Z,5.97
2022-12-09T08:54:12.731Z,5.65
2022-12-09T08:59:16.231Z,6.18
2022-12-09T09:04:20.890Z,8.07
2022-12-09T09:09:24.494Z,8.02
2022-12-09T09:14:27.142Z,10.43
2022-12-09T09:19:29.488Z,9.13
2022-12-09T09:24:31.978Z,8.45
2022-12-09T09:29:34.994Z,11.70
2022-12-09T09:34:37.777Z,18.85
2022-12-09T09:39:41.281Z,17.58
2022-12-09T09:44:47.675Z,12.35
2022-12-09T09:50:16.959Z,9.07
2022-12-09T09:55:33.158Z,10.43
2022-12-09T10:00:44.491Z,9.45
2022-12-09T10:05:51.824Z,8.73
2022-12-09T10:11:17.290Z,9.13
2022-12-09T10:16:31.422Z,8.10
2022-12-09T10:21:36.260Z,9.40
2022-12-09T10:26:38.740Z,6.10
2022-12-09T10:31:41.306Z,9.15
2022-12-09T10:36:46.221Z,7.55
2022-12-09T10:42:12.300Z,7.68
2022-12-09T10:52:43.154Z,6.10
2022-12-09T10:57:45.425Z,8.63
2022-12-09T11:02:53.057Z,11.00
2022-12-09T11:07:58.353Z,15.48
2022-12-09T11:13:09.857Z,16.25
2022-12-09T11:18:23.072Z,11.18
2022-12-09T11:23:25.643Z,12.00
2022-12-09T11:28:35.107Z,8.10
2022-12-09T11:33:47.616Z,8.93
2022-12-09T11:38:53.066Z,9.80
2022-12-09T11:43:57.172Z,9.70
2022-12-09T11:49:02.914Z,7.10
2022-12-09T11:54:26.431Z,9.07
2022-12-09T11:59:38.431Z,7.80
2022-12-09T12:04:54.350Z,7.75
2022-12-09T12:09:58.469Z,7.55
2022-12-09T12:15:10.587Z,8.18
2022-12-09T12:20:13.692Z,8.15
2022-12-09T12:25:33.804Z,6.47
2022-12-09T12:30:38.742Z,6.82
2022-12-09T12:35:58.717Z,5.85
2022-12-09T12:41:06.822Z,6.30
2022-12-09T12:46:20.394Z,6.95
2022-12-09T12:51:51.044Z,11.38
2022-12-09T12:57:09.469Z,9.65
2022-12-09T13:07:43.416Z,9.52
2022-12-09T13:12:54.421Z,5.88
2022-12-09T13:17:56.751Z,5.80
2022-12-09T13:23:23.246Z,4.40
2022-12-09T13:28:31.088Z,4.07
2022-12-09T13:33:54.962Z,5.47
2022-12-09T13:38:57.231Z,6.38
2022-12-09T13:44:12.745Z,6.70
2022-12-09T13:49:24.040Z,5.85
2022-12-09T13:54:28.766Z,4.65
2022-12-09T13:59:42.770Z,6.53
2022-12-09T14:05:19.609Z,4.55
2022-12-09T14:10:38.416Z,4.82
2022-12-09T14:15:40.796Z,7.28
2022-12-09T14:20:43.020Z,7.07
2022-12-09T14:25:55.163Z,10.00
2022-12-09T14:31:06.637Z,10.90
2022-12-09T14:36:13.414Z,11.45
2022-12-09T14:41:24.204Z,13.30
2022-12-09T14:46:36.640Z,12.48
2022-12-09T14:52:15.732Z,9.73
2022-12-09T14:57:44.105Z,8.25
2022-12-09T15:03:22.939Z,10.27
2022-12-09T15:08:37.692Z,6.97
2022-12-09T15:13:43.576Z,7.15
2022-12-09T15:18:46.995Z,5.93
2022-12-09T15:23:49.132Z,9.93
2022-12-09T15:28:53.132Z,7.72
2022-12-09T15:33:58.417Z,7.57
2022-12-09T15:39:07.443Z,6.72
2022-12-09T15:44:14.637Z,9.52
2022-12-09T15:49:23.317Z,11.73
2022-12-09T15:54:28.496Z,15.75
2022-12-09T15:59:36.650Z,11.82
2022-12-09T16:04:43.901Z,8.85
2022-12-09T16:10:15.790Z,9.85
2022-12-09T16:16:04.460Z,11.02
2022-12-09T16:21:15.891Z,9.43
2022-12-09T16:26:32.616Z,12.32
2022-12-09T16:31:34.935Z,16.02
2022-12-09T16:36:37.188Z,17.25
2022-12-09T16:41:51.552Z,12.10
2022-12-09T16:47:09.999Z,12.52
2022-12-09T16:52:14.712Z,18.25
2022-12-09T16:57:19.113Z,15.43
2022-12-09T17:02:43.113Z,18.50
2022-12-09T17:07:45.248Z,14.25
2022-12-09T17:12:48.903Z,17.17
2022-12-09T17:17:51.025Z,11.57
2022-12-09T17:22:53.166Z,17.42
2022-12-09T17:27:56.980Z,17.13
2022-12-09T17:32:59.967Z,18.60
2022-12-09T17:38:02.409Z,14.57
2022-12-09T17:43:04.562Z,14.25
2022-12-09T17:48:06.960Z,16.42
2022-12-09T17:53:09.328Z,21.45
2022-12-09T17:58:11.489Z,17.85
2022-12-09T18:03:17.875Z,18.25
2022-12-09T18:08:24.425Z,25.65
2022-12-09T18:13:26.657Z,30.60
2022-12-09T18:18:29.098Z,30.25
2022-12-09T18:23:31.464Z,22.25
2022-12-09T18:28:33.590Z,30.30
2022-12-09T18:33:37.220Z,26.23
2022-12-09T18:38:40.702Z,34.90
2022-12-09T18:43:44.796Z,30.17
2022-12-09T18:48:47.351Z,27.40
2022-12-09T18:53:50.100Z,26.83
2022-12-09T18:59:09.262Z,33.92
2022-12-09T19:04:30.743Z,23.02
2022-12-09T19:09:35.007Z,22.95
2022-12-09T19:14:40.798Z,21.85
2022-12-09T19:19:45.291Z,29.33
2022-12-09T19:24:47.444Z,29.52
2022-12-09T19:29:50.507Z,39.05
2022-12-09T19:34:52.971Z,38.70
2022-12-09T19:39:55.176Z,37.80
2022-12-09T19:45:02.415Z,36.25
2022-12-09T19:50:06.180Z,38.45
2022-12-09T19:55:09.043Z,42.60
2022-12-09T20:00:11.816Z,39.67
2022-12-09T20:05:14.374Z,36.45
2022-12-09T20:10:16.962Z,25.75
2022-12-09T20:15:19.118Z,28.65
2022-12-09T20:20:21.262Z,31.60
2022-12-09T20:25:23.383Z,39.45
2022-12-09T20:30:25.520Z,46.28
2022-12-09T20:35:27.752Z,34.22
2022-12-09T20:40:29.888Z,27.52
2022-12-09T20:45:32.408Z,27.48
2022-12-09T20:50:38.626Z,25.85
2022-12-09T20:55:41.039Z,31.02
2022-12-09T21:00:43.137Z,27.92
2022-12-09T21:05:45.552Z,29.02
2022-12-09T21:10:47.690Z,32.38
2022-12-09T21:15:49.777Z,22.33
2022-12-09T21:20:51.895Z,21.83
2022-12-09T21:25:54.211Z,26.02
2022-12-09T21:30:56.512Z,23.42
2022-12-09T21:35:58.691Z,24.52
2022-12-09T21:41:06.102Z,22.40
2022-12-09T21:46:18.909Z,32.88
2022-12-09T21:51:22.142Z,24.63
2022-12-09T21:56:27.603Z,28.05
2022-12-09T22:01:32.783Z,25.00
2022-12-09T22:06:35.786Z,22.60
2022-12-09T22:11:39.240Z,22.83
2022-12-09T22:16:44.148Z,24.48
2022-12-09T22:21:48.645Z,29.95
2022-12-09T22:26:50.833Z,30.00
2022-12-09T22:31:53.057Z,34.05
2022-12-09T22:36:55.545Z,30.08
2022-12-09T22:41:58.068Z,24.40
2022-12-09T22:47:00.150Z,29.42
2022-12-09T22:52:02.861Z,26.17
2022-12-09T22:57:05.064Z,19.70
2022-12-09T23:02:07.214Z,19.48
2022-12-09T23:07:09.561Z,20.45
2022-12-09T23:12:12.089Z,21.02
2022-12-09T23:17:14.253Z,18.85
2022-12-09T23:22:16.397Z,21.70
2022-12-09T23:27:18.579Z,24.33
2022-12-09T23:32:20.793Z,24.92
2022-12-09T23:37:23.120Z,29.05
2022-12-09T23:42:25.284Z,23.80
2022-12-09T23:47:27.588Z,27.52
2022-12-09T23:52:29.726Z,28.38
2022-12-09T23:57:31.883Z,25.42
